sensor_id;sensor_type;location;lat;lon;timestamp;P1;P2;P0
75385;PMS5003;64239;55.012;73.474;2022-11-15T00:01:06;13.25;11.00;6.75
75385;PMS5003;64239;55.012;73.474;2022-11-15T00:03:31;12.25;10.00;7.00
75385;PMS5003;64239;55.012;73.474;2022-11-15T00:06:01;16.00;13.00;7.25
75385;PMS5003;64239;55.012;73.474;2022-11-15T00:08:37;12.00;10.00;5.00
75385;PMS5003;64239;55.012;73.474;2022-11-15T00:11:03;13.00;10.00;5.00
75385;PMS5003;64239;55.012;73.474;2022-11-15T00:13:39;12.00;10.00;6.00
75385;PMS5003;64239;55.012;73.474;2022-11-15T00:16:05;18.00;14.00;9.00
75385;PMS5003;64239;55.012;73.474;2022-11-15T00:18:41;12.75;11.00;6.00
75385;PMS5003;64239;55.012;73.474;2022-11-15T00:21:17;11.25;9.50;5.25
75385;PMS5003;64239;55.012;73.474;2022-11-15T00:23:48;11.00;9.00;5.25
75385;PMS5003;64239;55.012;73.474;2022-11-15T00:26:19;10.50;9.25;5.25
75385;PMS5003;64239;55.012;73.474;2022-11-15T00:28:51;11.25;9.50;6.00
75385;PMS5003;64239;55.012;73.474;2022-11-15T00:31:18;11.00;10.00;6.00
75385;PMS5003;64239;55.012;73.474;2022-11-15T00:33:44;13.75;10.00;6.00
75385;PMS5003;64239;55.012;73.474;2022-11-15T00:36:15;14.00;12.00;7.00
75385;PMS5003;64239;55.012;73.474;2022-11-15T00:38:41;14.00;11.00;6.00
75385;PMS5003;64239;55.012;73.474;2022-11-15T00:41:07;11.00;10.00;6.00
75385;PMS5003;64239;55.012;73.474;2022-11-15T00:43:43;12.00;10.00;6.00
75385;PMS5003;64239;55.012;73.474;2022-11-15T00:46:14;11.75;9.50;6.00
75385;PMS5003;64239;55.012;73.474;2022-11-15T00:48:50;12.00;10.00;6.00
75385;PMS5003;64239;55.012;73.474;2022-11-15T00:51:16;12.50;10.00;6.00
75385;PMS5003;64239;55.012;73.474;2022-11-15T00:53:42;11.00;9.00;6.00
75385;PMS5003;64239;55.012;73.474;2022-11-15T00:56:08;12.00;9.00;6.00
75385;PMS5003;64239;55.012;73.474;2022-11-15T00:58:34;13.00;10.00;6.00
75385;PMS5003;64239;55.012;73.474;2022-11-15T01:01:09;13.75;11.00;6.00
75385;PMS5003;64239;55.012;73.474;2022-11-15T01:03:36;13.00;11.00;6.00
75385;PMS5003;64239;55.012;73.474;2022-11-15T01:06:02;13.00;10.50;6.00
75385;PMS5003;64239;55.012;73.474;2022-11-15T01:08:28;15.00;12.00;7.00
75385;PMS5003;64239;55.012;73.474;2022-11-15T01:11:04;13.75;11.75;8.00
75385;PMS5003;64239;55.012;73.474;2022-11-15T01:13:31;13.50;11.00;7.00
75385;PMS5003;64239;55.012;73.474;2022-11-15T01:15:57;14.00;12.00;7.00
75385;PMS5003;64239;55.012;73.474;2022-11-15T01:18:23;16.00;13.00;8.00
75385;PMS5003;64239;55.012;73.474;2022-11-15T01:20:49;12.75;11.00;7.00
75385;PMS5003;64239;55.012;73.474;2022-11-15T01:23:14;17.00;12.25;6.25
75385;PMS5003;64239;55.012;73.474;2022-11-15T01:25:40;14.25;12.25;7.00
75385;PMS5003;64239;55.012;73.474;2022-11-15T01:28:06;15.00;12.00;7.00
75385;PMS5003;64239;55.012;73.474;2022-11-15T01:30:33;13.75;10.25;7.00
75385;PMS5003;64239;55.012;73.474;2022-11-15T01:32:59;16.00;12.25;7.00
75385;PMS5003;64239;55.012;73.474;2022-11-15T01:35:24;17.00;13.00;7.00
75385;PMS5003;64239;55.012;73.474;2022-11-15T01:37:50;19.00;13.75;7.00
75385;PMS5003;64239;55.012;73.474;2022-11-15T01:40:26;17.00;14.00;8.00
75385;PMS5003;64239;55.012;73.474;2022-11-15T01:42:52;20.50;14.50;8.00
75385;PMS5003;64239;55.012;73.474;2022-11-15T01:45:23;16.75;14.00;8.00
75385;PMS5003;64239;55.012;73.474;2022-11-15T01:47:55;18.75;15.00;9.00
75385;PMS5003;64239;55.012;73.474;2022-11-15T01:50:22;19.00;15.25;10.00
75385;PMS5003;64239;55.012;73.474;2022-11-15T01:52:51;19.25;16.00;8.75
75385;PMS5003;64239;55.012;73.474;2022-11-15T01:55:21;19.00;14.50;8.00
75385;PMS5003;64239;55.012;73.474;2022-11-15T01:57:49;18.50;15.00;9.00
75385;PMS5003;64239;55.012;73.474;2022-11-15T02:00:21;22.00;16.00;10.00
75385;PMS5003;64239;55.012;73.474;2022-11-15T02:02:57;20.00;16.00;9.00
75385;PMS5003;64239;55.012;73.474;2022-11-15T02:05:23;22.00;17.00;9.00
75385;PMS5003;64239;55.012;73.474;2022-11-15T02:07:53;24.00;19.00;11.00
75385;PMS5003;64239;55.012;73.474;2022-11-15T02:10:21;20.00;16.00;9.00
75385;PMS5003;64239;55.012;73.474;2022-11-15T02:12:47;23.00;15.00;9.00
75385;PMS5003;64239;55.012;73.474;2022-11-15T02:15:13;18.25;13.50;8.00
75385;PMS5003;64239;55.012;73.474;2022-11-15T02:17:48;16.75;13.00;7.50
75385;PMS5003;64239;55.012;73.474;2022-11-15T02:28:16;24.25;19.00;12.00
75385;PMS5003;64239;55.012;73.474;2022-11-15T02:30:55;24.00;19.00;11.00
75385;PMS5003;64239;55.012;73.474;2022-11-15T02:33:36;20.00;16.00;9.00
75385;PMS5003;64239;55.012;73.474;2022-11-15T02:41:24;17.50;14.75;9.00
75385;PMS5003;64239;55.012;73.474;2022-11-15T02:43:56;22.00;17.00;10.00
75385;PMS5003;64239;55.012;73.474;2022-11-15T02:49:11;23.25;18.75;11.00
75385;PMS5003;64239;55.012;73.474;2022-11-15T02:51:48;20.00;15.75;9.00
75385;PMS5003;64239;55.012;73.474;2022-11-15T02:54:19;19.00;15.00;9.00
75385;PMS5003;64239;55.012;73.474;2022-11-15T02:57:01;15.00;13.00;8.00
75385;PMS5003;64239;55.012;73.474;2022-11-15T02:59:43;20.50;17.25;10.75
75385;PMS5003;64239;55.012;73.474;2022-11-15T03:04:52;24.00;19.00;11.00
75385;PMS5003;64239;55.012;73.474;2022-11-15T03:07:32;24.00;19.00;12.00
75385;PMS5003;64239;55.012;73.474;2022-11-15T03:10:06;20.00;16.00;10.00
75385;PMS5003;64239;55.012;73.474;2022-11-15T03:12:35;20.00;16.00;9.00
75385;PMS5003;64239;55.012;73.474;2022-11-15T03:15:06;21.00;17.00;10.50
75385;PMS5003;64239;55.012;73.474;2022-11-15T03:17:40;21.00;17.00;10.75
75385;PMS5003;64239;55.012;73.474;2022-11-15T03:20:08;32.00;24.00;12.50
75385;PMS5003;64239;55.012;73.474;2022-11-15T03:22:36;60.00;43.50;25.00
75385;PMS5003;64239;55.012;73.474;2022-11-15T03:25:10;71.25;50.75;30.75
75385;PMS5003;64239;55.012;73.474;2022-11-15T03:27:40;58.50;42.75;26.25
75385;PMS5003;64239;55.012;73.474;2022-11-15T03:30:10;96.00;75.00;46.75
75385;PMS5003;64239;55.012;73.474;2022-11-15T03:32:38;110.50;86.25;53.50
75385;PMS5003;64239;55.012;73.474;2022-11-15T03:35:18;130.75;101.75;59.75
75385;PMS5003;64239;55.012;73.474;2022-11-15T03:40:23;55.00;41.00;25.25
75385;PMS5003;64239;55.012;73.474;2022-11-15T03:45:23;29.00;22.25;15.00
75385;PMS5003;64239;55.012;73.474;2022-11-15T03:50:20;20.50;16.50;9.75
75385;PMS5003;64239;55.012;73.474;2022-11-15T03:52:47;18.00;16.00;10.00
75385;PMS5003;64239;55.012;73.474;2022-11-15T03:55:15;22.00;17.75;11.00
75385;PMS5003;64239;55.012;73.474;2022-11-15T03:57:51;24.00;20.75;12.00
75385;PMS5003;64239;55.012;73.474;2022-11-15T04:00:18;23.00;18.00;12.00
75385;PMS5003;64239;55.012;73.474;2022-11-15T04:02:49;23.75;18.00;11.00
75385;PMS5003;64239;55.012;73.474;2022-11-15T04:05:26;26.25;21.75;13.75
75385;PMS5003;64239;55.012;73.474;2022-11-15T04:07:52;57.25;44.50;30.25
75385;PMS5003;64239;55.012;73.474;2022-11-15T04:10:17;56.25;44.00;28.50
75385;PMS5003;64239;55.012;73.474;2022-11-15T04:12:44;41.25;33.00;21.00
75385;PMS5003;64239;55.012;73.474;2022-11-15T04:15:16;56.50;43.75;28.25
75385;PMS5003;64239;55.012;73.474;2022-11-15T04:17:49;37.00;28.50;19.00
75385;PMS5003;64239;55.012;73.474;2022-11-15T04:23:09;26.00;22.00;15.00
75385;PMS5003;64239;55.012;73.474;2022-11-15T04:26:06;22.00;18.00;9.75
75385;PMS5003;64239;55.012;73.474;2022-11-15T04:28:35;22.00;18.00;11.00
75385;PMS5003;64239;55.012;73.474;2022-11-15T04:31:31;30.25;23.75;14.00
75385;PMS5003;64239;55.012;73.474;2022-11-15T04:33:57;22.75;18.50;11.00
75385;PMS5003;64239;55.012;73.474;2022-11-15T04:36:23;26.00;21.00;12.00
75385;PMS5003;64239;55.012;73.474;2022-11-15T04:39:07;24.00;18.50;12.00
75385;PMS5003;64239;55.012;73.474;2022-11-15T04:41:33;21.00;16.00;10.00
75385;PMS5003;64239;55.012;73.474;2022-11-15T04:43:59;16.00;13.25;8.25
75385;PMS5003;64239;55.012;73.474;2022-11-15T04:46:26;20.00;17.00;10.00
75385;PMS5003;64239;55.012;73.474;2022-11-15T04:48:52;26.00;19.00;12.00
75385;PMS5003;64239;55.012;73.474;2022-11-15T04:51:18;18.00;15.00;8.50
75385;PMS5003;64239;55.012;73.474;2022-11-15T04:53:50;21.00;17.00;10.00
75385;PMS5003;64239;55.012;73.474;2022-11-15T04:56:25;29.00;24.00;15.00
75385;PMS5003;64239;55.012;73.474;2022-11-15T04:58:55;25.00;21.00;14.00
75385;PMS5003;64239;55.012;73.474;2022-11-15T05:01:26;42.50;33.50;23.25
75385;PMS5003;64239;55.012;73.474;2022-11-15T05:04:02;40.50;32.75;22.00
75385;PMS5003;64239;55.012;73.474;2022-11-15T05:06:56;38.00;31.00;21.00
75385;PMS5003;64239;55.012;73.474;2022-11-15T05:09:22;47.25;38.00;28.00
75385;PMS5003;64239;55.012;73.474;2022-11-15T05:11:51;73.50;60.75;43.75
75385;PMS5003;64239;55.012;73.474;2022-11-15T05:14:17;51.25;41.00;27.00
75385;PMS5003;64239;55.012;73.474;2022-11-15T05:16:53;57.00;44.25;30.00
75385;PMS5003;64239;55.012;73.474;2022-11-15T05:19:18;52.50;39.50;25.25
75385;PMS5003;64239;55.012;73.474;2022-11-15T05:21:44;29.00;24.00;17.00
75385;PMS5003;64239;55.012;73.474;2022-11-15T05:24:10;48.50;38.00;26.00
75385;PMS5003;64239;55.012;73.474;2022-11-15T05:26:36;37.00;30.75;21.00
75385;PMS5003;64239;55.012;73.474;2022-11-15T05:29:05;34.00;28.00;19.00
75385;PMS5003;64239;55.012;73.474;2022-11-15T05:31:31;65.75;47.75;28.00
75385;PMS5003;64239;55.012;73.474;2022-11-15T05:34:04;55.00;42.00;27.00
75385;PMS5003;64239;55.012;73.474;2022-11-15T05:36:38;57.75;43.50;27.00
75385;PMS5003;64239;55.012;73.474;2022-11-15T05:39:14;38.00;30.50;19.00
75385;PMS5003;64239;55.012;73.474;2022-11-15T05:41:41;31.00;25.00;16.00
75385;PMS5003;64239;55.012;73.474;2022-11-15T05:44:10;34.25;26.00;15.50
75385;PMS5003;64239;55.012;73.474;2022-11-15T05:46:37;67.75;52.50;35.50
75385;PMS5003;64239;55.012;73.474;2022-11-15T05:49:15;29.00;24.75;16.00
75385;PMS5003;64239;55.012;73.474;2022-11-15T05:51:49;24.75;20.00;13.00
75385;PMS5003;64239;55.012;73.474;2022-11-15T05:54:15;41.75;31.25;19.75
75385;PMS5003;64239;55.012;73.474;2022-11-15T05:56:46;87.50;71.50;46.00
75385;PMS5003;64239;55.012;73.474;2022-11-15T05:59:22;30.00;24.00;15.00
75385;PMS5003;64239;55.012;73.474;2022-11-15T06:01:48;30.00;24.00;13.50
75385;PMS5003;64239;55.012;73.474;2022-11-15T06:04:14;29.25;24.50;14.00
75385;PMS5003;64239;55.012;73.474;2022-11-15T06:06:40;27.00;22.50;13.00
75385;PMS5003;64239;55.012;73.474;2022-11-15T06:09:06;27.25;22.75;14.00
75385;PMS5003;64239;55.012;73.474;2022-11-15T06:11:41;25.75;23.00;15.75
75385;PMS5003;64239;55.012;73.474;2022-11-15T06:14:07;26.50;22.75;15.00
75385;PMS5003;64239;55.012;73.474;2022-11-15T06:16:33;16.75;13.00;8.00
75385;PMS5003;64239;55.012;73.474;2022-11-15T06:18:59;20.00;17.00;10.00
75385;PMS5003;64239;55.012;73.474;2022-11-15T06:21:25;18.75;15.75;11.00
75385;PMS5003;64239;55.012;73.474;2022-11-15T06:23:53;25.00;21.00;13.00
75385;PMS5003;64239;55.012;73.474;2022-11-15T06:26:24;26.50;22.00;13.00
75385;PMS5003;64239;55.012;73.474;2022-11-15T06:28:55;27.50;22.25;13.50
75385;PMS5003;64239;55.012;73.474;2022-11-15T06:31:21;20.00;16.00;10.00
75385;PMS5003;64239;55.012;73.474;2022-11-15T06:33:57;19.00;15.75;9.00
75385;PMS5003;64239;55.012;73.474;2022-11-15T06:36:24;19.00;15.25;9.00
75385;PMS5003;64239;55.012;73.474;2022-11-15T06:38:50;16.00;14.00;8.00
75385;PMS5003;64239;55.012;73.474;2022-11-15T06:41:16;16.50;13.00;7.00
75385;PMS5003;64239;55.012;73.474;2022-11-15T06:43:47;13.50;9.00;6.00
75385;PMS5003;64239;55.012;73.474;2022-11-15T06:46:13;13.00;11.00;7.00
75385;PMS5003;64239;55.012;73.474;2022-11-15T06:48:39;12.00;10.00;6.00
75385;PMS5003;64239;55.012;73.474;2022-11-15T06:51:05;17.50;14.50;9.25
75385;PMS5003;64239;55.012;73.474;2022-11-15T06:53:42;46.00;33.00;21.00
75385;PMS5003;64239;55.012;73.474;2022-11-15T06:56:08;23.00;19.00;12.50
75385;PMS5003;64239;55.012;73.474;2022-11-15T06:58:34;20.00;16.25;10.00
75385;PMS5003;64239;55.012;73.474;2022-11-15T07:01:02;15.00;13.00;8.00
75385;PMS5003;64239;55.012;73.474;2022-11-15T07:03:28;15.50;13.00;8.00
75385;PMS5003;64239;55.012;73.474;2022-11-15T07:05:55;13.50;11.25;6.75
75385;PMS5003;64239;55.012;73.474;2022-11-15T07:08:21;38.75;29.00;18.00
75385;PMS5003;64239;55.012;73.474;2022-11-15T07:10:51;22.00;17.00;10.00
75385;PMS5003;64239;55.012;73.474;2022-11-15T07:13:17;15.00;12.00;7.00
75385;PMS5003;64239;55.012;73.474;2022-11-15T07:15:43;13.00;10.00;6.00
75385;PMS5003;64239;55.012;73.474;2022-11-15T07:18:09;14.00;11.00;7.00
75385;PMS5003;64239;55.012;73.474;2022-11-15T07:20:37;14.50;11.75;6.25
75385;PMS5003;64239;55.012;73.474;2022-11-15T07:23:08;15.00;12.50;7.00
75385;PMS5003;64239;55.012;73.474;2022-11-15T07:25:38;23.50;18.00;9.75
75385;PMS5003;64239;55.012;73.474;2022-11-15T07:28:04;21.00;16.00;9.00
75385;PMS5003;64239;55.012;73.474;2022-11-15T07:30:30;22.50;18.00;11.25
75385;PMS5003;64239;55.012;73.474;2022-11-15T07:32:57;26.00;20.75;12.00
75385;PMS5003;64239;55.012;73.474;2022-11-15T07:35:32;22.00;18.00;10.75
75385;PMS5003;64239;55.012;73.474;2022-11-15T07:37:59;23.00;18.00;10.00
75385;PMS5003;64239;55.012;73.474;2022-11-15T07:40:26;28.00;22.00;13.00
75385;PMS5003;64239;55.012;73.474;2022-11-15T07:42:58;26.25;19.00;10.50
75385;PMS5003;64239;55.012;73.474;2022-11-15T07:45:24;19.50;16.50;10.50
75385;PMS5003;64239;55.012;73.474;2022-11-15T07:47:53;25.00;21.00;12.00
75385;PMS5003;64239;55.012;73.474;2022-11-15T07:50:19;18.00;14.00;9.00
75385;PMS5003;64239;55.012;73.474;2022-11-15T07:52:45;24.00;18.75;11.00
75385;PMS5003;64239;55.012;73.474;2022-11-15T07:55:11;17.00;14.00;7.25
75385;PMS5003;64239;55.012;73.474;2022-11-15T07:57:37;19.50;16.00;9.50
75385;PMS5003;64239;55.012;73.474;2022-11-15T08:00:04;21.00;16.00;9.00
75385;PMS5003;64239;55.012;73.474;2022-11-15T08:02:31;22.50;17.50;11.50
75385;PMS5003;64239;55.012;73.474;2022-11-15T08:05:07;43.50;34.00;21.00
75385;PMS5003;64239;55.012;73.474;2022-11-15T08:07:32;28.00;21.00;14.00
75385;PMS5003;64239;55.012;73.474;2022-11-15T08:10:08;16.75;13.75;8.25
75385;PMS5003;64239;55.012;73.474;2022-11-15T08:12:37;20.25;15.00;9.00
75385;PMS5003;64239;55.012;73.474;2022-11-15T08:15:03;28.50;22.75;13.50
75385;PMS5003;64239;55.012;73.474;2022-11-15T08:17:29;21.75;15.00;10.00
75385;PMS5003;64239;55.012;73.474;2022-11-15T08:19:58;23.75;18.75;10.00
75385;PMS5003;64239;55.012;73.474;2022-11-15T08:22:24;21.75;17.00;10.00
75385;PMS5003;64239;55.012;73.474;2022-11-15T08:24:50;24.25;20.00;12.00
75385;PMS5003;64239;55.012;73.474;2022-11-15T08:27:16;36.00;27.25;17.00
75385;PMS5003;64239;55.012;73.474;2022-11-15T08:29:48;30.00;23.00;13.75
75385;PMS5003;64239;55.012;73.474;2022-11-15T08:32:14;33.00;25.00;15.00
75385;PMS5003;64239;55.012;73.474;2022-11-15T08:34:40;32.25;24.25;16.00
75385;PMS5003;64239;55.012;73.474;2022-11-15T08:37:05;28.00;23.00;16.00
75385;PMS5003;64239;55.012;73.474;2022-11-15T08:39:31;28.75;24.00;15.00
75385;PMS5003;64239;55.012;73.474;2022-11-15T08:42:07;23.50;19.00;10.25
75385;PMS5003;64239;55.012;73.474;2022-11-15T08:44:35;26.50;21.00;11.50
75385;PMS5003;64239;55.012;73.474;2022-11-15T08:47:01;28.50;22.25;13.25
75385;PMS5003;64239;55.012;73.474;2022-11-15T08:49:27;22.00;19.00;11.00
75385;PMS5003;64239;55.012;73.474;2022-11-15T08:51:52;24.00;20.00;12.00
75385;PMS5003;64239;55.012;73.474;2022-11-15T08:54:24;24.00;19.00;11.00
75385;PMS5003;64239;55.012;73.474;2022-11-15T08:56:50;22.25;18.50;11.00
75385;PMS5003;64239;55.012;73.474;2022-11-15T08:59:15;42.50;35.00;23.25
75385;PMS5003;64239;55.012;73.474;2022-11-15T09:01:41;41.00;30.00;19.50
75385;PMS5003;64239;55.012;73.474;2022-11-15T09:04:08;23.25;19.00;11.25
75385;PMS5003;64239;55.012;73.474;2022-11-15T09:06:34;24.75;20.00;12.50
75385;PMS5003;64239;55.012;73.474;2022-11-15T09:09:10;20.50;16.50;10.75
75385;PMS5003;64239;55.012;73.474;2022-11-15T09:11:36;24.50;20.00;11.75
75385;PMS5003;64239;55.012;73.474;2022-11-15T09:14:02;34.00;26.25;15.00
75385;PMS5003;64239;55.012;73.474;2022-11-15T09:16:38;34.00;25.00;17.00
75385;PMS5003;64239;55.012;73.474;2022-11-15T09:19:04;22.25;18.50;13.00
75385;PMS5003;64239;55.012;73.474;2022-11-15T09:21:30;21.25;17.50;11.00
75385;PMS5003;64239;55.012;73.474;2022-11-15T09:23:57;16.50;13.00;8.00
75385;PMS5003;64239;55.012;73.474;2022-11-15T09:26:32;15.00;12.00;7.00
75385;PMS5003;64239;55.012;73.474;2022-11-15T09:29:03;15.00;13.00;8.00
75385;PMS5003;64239;55.012;73.474;2022-11-15T09:31:29;29.50;24.00;15.50
75385;PMS5003;64239;55.012;73.474;2022-11-15T09:34:05;45.25;33.50;19.00
75385;PMS5003;64239;55.012;73.474;2022-11-15T09:36:31;10.75;9.00;6.00
75385;PMS5003;64239;55.012;73.474;2022-11-15T09:39:06;13.00;10.00;6.00
75385;PMS5003;64239;55.012;73.474;2022-11-15T09:49:31;26.75;21.50;15.25
75385;PMS5003;64239;55.012;73.474;2022-11-15T09:51:58;13.00;11.50;7.00
75385;PMS5003;64239;55.012;73.474;2022-11-15T09:54:41;9.75;8.25;5.00
75385;PMS5003;64239;55.012;73.474;2022-11-15T09:57:13;23.25;15.75;8.50
75385;PMS5003;64239;55.012;73.474;2022-11-15T10:04:46;19.50;14.00;8.00
75385;PMS5003;64239;55.012;73.474;2022-11-15T10:09:51;15.75;12.00;7.00
75385;PMS5003;64239;55.012;73.474;2022-11-15T10:12:24;18.50;14.50;7.75
75385;PMS5003;64239;55.012;73.474;2022-11-15T10:14:53;19.25;14.75;8.75
75385;PMS5003;64239;55.012;73.474;2022-11-15T10:17:47;23.50;17.00;9.00
75385;PMS5003;64239;55.012;73.474;2022-11-15T10:20:28;36.00;27.00;14.00
75385;PMS5003;64239;55.012;73.474;2022-11-15T10:23:00;31.00;24.00;13.00
75385;PMS5003;64239;55.012;73.474;2022-11-15T10:25:27;37.00;27.75;15.50
75385;PMS5003;64239;55.012;73.474;2022-11-15T10:30:19;40.25;31.00;18.50
75385;PMS5003;64239;55.012;73.474;2022-11-15T10:32:46;37.00;29.00;19.00
75385;PMS5003;64239;55.012;73.474;2022-11-15T10:35:16;37.75;27.00;15.75
75385;PMS5003;64239;55.012;73.474;2022-11-15T10:37:42;38.50;29.50;17.75
75385;PMS5003;64239;55.012;73.474;2022-11-15T10:40:22;32.75;25.50;15.00
75385;PMS5003;64239;55.012;73.474;2022-11-15T10:42:48;32.00;25.50;16.25
75385;PMS5003;64239;55.012;73.474;2022-11-15T10:45:34;32.00;24.00;14.00
75385;PMS5003;64239;55.012;73.474;2022-11-15T10:50:44;37.00;28.00;18.00
75385;PMS5003;64239;55.012;73.474;2022-11-15T10:55:52;40.00;30.00;18.00
75385;PMS5003;64239;55.012;73.474;2022-11-15T10:58:30;30.75;22.00;13.50
75385;PMS5003;64239;55.012;73.474;2022-11-15T11:01:08;25.75;21.00;13.00
75385;PMS5003;64239;55.012;73.474;2022-11-15T11:03:45;16.00;13.75;7.50
75385;PMS5003;64239;55.012;73.474;2022-11-15T11:06:23;23.00;16.00;10.00
75385;PMS5003;64239;55.012;73.474;2022-11-15T11:09:20;25.00;19.00;11.00
75385;PMS5003;64239;55.012;73.474;2022-11-15T11:11:45;27.00;21.75;13.00
75385;PMS5003;64239;55.012;73.474;2022-11-15T11:14:30;24.50;19.00;11.00
75385;PMS5003;64239;55.012;73.474;2022-11-15T11:19:56;41.00;30.00;18.00
75385;PMS5003;64239;55.012;73.474;2022-11-15T11:25:04;45.75;37.00;23.00
75385;PMS5003;64239;55.012;73.474;2022-11-15T11:30:08;51.00;38.00;24.00
75385;PMS5003;64239;55.012;73.474;2022-11-15T11:35:36;34.00;27.00;15.00
75385;PMS5003;64239;55.012;73.474;2022-11-15T11:50:51;80.50;63.50;37.25
75385;PMS5003;64239;55.012;73.474;2022-11-15T11:53:27;59.00;45.00;27.00
75385;PMS5003;64239;55.012;73.474;2022-11-15T11:56:01;41.00;30.50;18.00
75385;PMS5003;64239;55.012;73.474;2022-11-15T11:58:38;48.50;36.00;22.50
75385;PMS5003;64239;55.012;73.474;2022-11-15T12:01:16;43.75;33.00;21.00
75385;PMS5003;64239;55.012;73.474;2022-11-15T12:03:57;25.00;19.00;11.00
75385;PMS5003;64239;55.012;73.474;2022-11-15T12:09:30;22.00;18.50;12.00
75385;PMS5003;64239;55.012;73.474;2022-11-15T12:12:11;21.50;17.00;10.00
75385;PMS5003;64239;55.012;73.474;2022-11-15T12:17:12;20.00;17.00;10.00
75385;PMS5003;64239;55.012;73.474;2022-11-15T12:19:39;22.25;18.00;11.00
75385;PMS5003;64239;55.012;73.474;2022-11-15T12:22:13;34.00;25.00;15.75
75385;PMS5003;64239;55.012;73.474;2022-11-15T12:24:46;33.50;24.00;14.75
75385;PMS5003;64239;55.012;73.474;2022-11-15T12:29:43;30.25;24.00;14.00
75385;PMS5003;64239;55.012;73.474;2022-11-15T12:32:34;35.00;26.25;16.25
75385;PMS5003;64239;55.012;73.474;2022-11-15T12:35:57;38.00;29.00;17.00
75385;PMS5003;64239;55.012;73.474;2022-11-15T12:37:59;38.00;30.00;19.00
75385;PMS5003;64239;55.012;73.474;2022-11-15T12:43:33;51.00;39.50;24.00
75385;PMS5003;64239;55.012;73.474;2022-11-15T12:45:44;37.75;29.50;17.50
75385;PMS5003;64239;55.012;73.474;2022-11-15T12:50:53;42.00;30.00;17.75
75385;PMS5003;64239;55.012;73.474;2022-11-15T12:59:38;54.75;41.50;26.00
75385;PMS5003;64239;55.012;73.474;2022-11-15T13:06:36;41.00;31.00;19.00
75385;PMS5003;64239;55.012;73.474;2022-11-15T13:09:03;49.00;36.00;20.00
75385;PMS5003;64239;55.012;73.474;2022-11-15T13:11:43;53.00;41.00;24.00
75385;PMS5003;64239;55.012;73.474;2022-11-15T13:14:39;60.75;43.75;26.00
75385;PMS5003;64239;55.012;73.474;2022-11-15T13:19:45;58.00;42.00;24.00
75385;PMS5003;64239;55.012;73.474;2022-11-15T13:22:12;47.00;35.25;20.00
75385;PMS5003;64239;55.012;73.474;2022-11-15T13:24:56;37.00;28.00;17.50
75385;PMS5003;64239;55.012;73.474;2022-11-15T13:27:28;37.75;28.25;18.00
75385;PMS5003;64239;55.012;73.474;2022-11-15T13:29:54;31.50;24.50;15.00
75385;PMS5003;64239;55.012;73.474;2022-11-15T13:32:24;41.50;31.75;19.75
75385;PMS5003;64239;55.012;73.474;2022-11-15T13:34:50;36.00;26.00;15.00
75385;PMS5003;64239;55.012;73.474;2022-11-15T13:39:49;42.75;31.00;19.25
75385;PMS5003;64239;55.012;73.474;2022-11-15T13:42:19;54.00;39.50;23.00
75385;PMS5003;64239;55.012;73.474;2022-11-15T13:44:58;50.50;35.75;22.00
75385;PMS5003;64239;55.012;73.474;2022-11-15T13:47:34;48.75;34.25;20.00
75385;PMS5003;64239;55.012;73.474;2022-11-15T13:50:00;55.00;41.00;25.00
75385;PMS5003;64239;55.012;73.474;2022-11-15T13:52:32;75.50;54.00;34.00
75385;PMS5003;64239;55.012;73.474;2022-11-15T13:55:21;65.00;47.25;29.00
75385;PMS5003;64239;55.012;73.474;2022-11-15T13:57:48;63.00;48.00;30.00
75385;PMS5003;64239;55.012;73.474;2022-11-15T14:00:34;64.00;46.50;30.00
75385;PMS5003;64239;55.012;73.474;2022-11-15T14:03:17;53.00;40.00;24.00
75385;PMS5003;64239;55.012;73.474;2022-11-15T14:05:44;55.00;40.00;24.75
75385;PMS5003;64239;55.012;73.474;2022-11-15T14:08:24;58.00;42.00;25.75
75385;PMS5003;64239;55.012;73.474;2022-11-15T14:11:05;23.00;17.00;9.50
75385;PMS5003;64239;55.012;73.474;2022-11-15T14:13:41;17.25;13.00;7.00
75385;PMS5003;64239;55.012;73.474;2022-11-15T14:16:14;18.25;13.75;8.50
75385;PMS5003;64239;55.012;73.474;2022-11-15T14:18:50;24.75;15.50;9.00
75385;PMS5003;64239;55.012;73.474;2022-11-15T14:21:16;12.00;10.00;6.00
75385;PMS5003;64239;55.012;73.474;2022-11-15T14:23:43;11.00;9.00;4.75
75385;PMS5003;64239;55.012;73.474;2022-11-15T14:35:14;19.00;15.00;8.00
75385;PMS5003;64239;55.012;73.474;2022-11-15T14:37:40;16.00;13.00;8.00
75385;PMS5003;64239;55.012;73.474;2022-11-15T14:40:06;17.00;13.75;9.00
75385;PMS5003;64239;55.012;73.474;2022-11-15T14:42:39;13.00;11.00;7.00
75385;PMS5003;64239;55.012;73.474;2022-11-15T14:45:15;16.00;13.75;8.00
75385;PMS5003;64239;55.012;73.474;2022-11-15T14:47:41;20.00;14.00;9.00
75385;PMS5003;64239;55.012;73.474;2022-11-15T14:50:18;15.00;12.00;8.00
75385;PMS5003;64239;55.012;73.474;2022-11-15T14:52:46;22.25;18.00;11.25
75385;PMS5003;64239;55.012;73.474;2022-11-15T15:03:19;53.00;39.75;25.00
75385;PMS5003;64239;55.012;73.474;2022-11-15T15:05:45;50.25;36.50;22.00
75385;PMS5003;64239;55.012;73.474;2022-11-15T15:08:11;50.75;37.50;22.50
75385;PMS5003;64239;55.012;73.474;2022-11-15T15:10:47;38.50;28.00;17.00
